Fort Chipewyan Airport
CYPY : now visible

Airfield :











YOU CAN JOIN US ON...

 
LOGIN :

Register | Disclaimer

   EN    FR    IT 

 









Legend :    VFR   Marginal VFR   IFR   Intensive IFR   Very Intensive IFR
Visi :
Ceiling :
>= 8 km
>= 3000ft
5 to 8 km
1000 to 3000 ft
1500m to 5 km
500 to 1000 ft
800 to 1500m
200 to 500 ft
< 800m
< 200 ft
Symbols :   Thunderstorms  Fog  Heavy snow  Heavy precipitations  Wind > 20 kt






- Airport Elevation : 761 ft
- IATA code : YPY


CYPY - Fort Chipewyan

CURRENT METAR :
  • 151400Z AUTO 04002KT 9SM OVC005 M31/M35 A2986 RMK SLP147

EXPIRED METARs :
  • 151300Z AUTO 00000KT 9SM OVC005 M31/M35 A2986 RMK SLP149
  • 151244Z AUTO 00000KT 9SM BKN005 BKN008 BKN190 M31/M34 A2987 RMK SLP150
  • 151200Z AUTO 06002KT 9SM BKN008 OVC012 M30/M33 A2988 RMK SLP153

TAF TAF CYPY
Valid from the 15 at 13:00 until the 16 at 01:00 UTC


151238Z 1513/1601 VRB03KT P6SM SCT006 OVC012
TEMPO 1513/1518 5SM -SN BR BKN006
FM151800 VRB03KT P6SM BKN025
TEMPO 1518/1601 6SM -SN SCT008 BKN015
BECMG 1521/1523 30006KT RMK FCST BASED ON AUTO OBS. NXT FCST BY 151800Z



MET'MAP, your aeronautical weather chart ! - Copyright ORBIFLY December 2007 - Disclaimer

ORBIFLY MET'MAP TEAM :

Programming & Development : Alexandra Zaïnal
Concept & original design : Baudouin d'Aumeries
Assistance for programming : Marc-Olivier Méhu
Technical & hardware support : Manuel Goepfert

Contact : metmap@orbifly.com




SOURCES & CREDITS :

   NOAA       Earth
Advisory